K40B

Clayton Lake Airport

Clayton Lake, Maine, USA
METAR K40B 210516Z AUTO 00000KT 11/11 A3017 RMK AO1 SLP209 T01100111 402480064 58002
Observed Flight Rules
Aug-21 @ 05:16 UTC (12 hours ago)
Temperatures Readings
Current 11°C / 52°F
Dewpoint 11°C / 52°F
Humidity 100%
Altimeter 30.17" Hg
Pressure 1020.9 hPa
Elevation 314
METAR K40B 210516Z AUTO 00000KT 11/11 A3017 RMK AO1 SLP209 T01100111 402480064 58002
Observed Flight Rules
Aug-21 @ 05:16 UTC
(12 hours ago)
Temperature Dewpoint
11°C / 52°F 11°C / 52°F
Humidity Altimeter Pressure
100% 30.17" Hg 1020.9 hPa